Flight Track Log - Related Links

Times and Time Zones

All times are in EDT time to prevent confusion due to time zone crossing. See the XA-PBT flight status page for this flight to view local times or setup timezone preferences in your user account.

Time Position Orientation Groundspeed Altitude Reporting Facility
EDT Latitude Longitude Course Direction KTS MPH feet Rate Location/Type
Fri 09:31:36 PM 25.9019 -97.4197 135° Southeast 202 232 400  Level Houston Center
Fri 09:32:31 PM 25.8756 -97.3908 135° Southeast 146 168 3,900 3,371 Climbing Houston Center
Fri 09:33:05 PM 25.8511 -97.3642 136° Southeast 191 220 5,400 2,938 Climbing Houston Center
Fri 09:34:07 PM 25.7897 -97.3853 197° South 263 303 8,600 3,268 Climbing Houston Center
Fri 09:35:08 PM 25.7756 -97.4733 260° West 293 337 12,100 3,415 Climbing Houston Center
Fri 09:36:10 PM 25.7711 -97.5636 267° West 295 339 15,600 2,780 Climbing Houston Center
Fri 09:37:11 PM 25.7728 -97.6653 271° West 303 349 17,800 1,180 Climbing Houston Center
Fri 09:38:12 PM 25.7728 -97.7831 270° West 374 430 18,000 98 Climbing Houston Center
Fri 09:39:14 PM 25.7742 -97.9042 271° West 389 448 18,000  Level Houston Center
Fri 09:40:15 PM 25.7736 -98.0258 270° West 393 452 18,000  Level Houston Center
Fri 09:41:16 PM 25.7750 -98.1586 271° West 398 458 18,000  Level Houston Center
Fri 09:42:18 PM 25.7758 -98.2831 270° West 402 463 18,000  Level Houston Center
Fri 09:43:19 PM 25.7767 -98.4069 270° West 401 461 18,000  Level Houston Center
Fri 09:44:21 PM 25.7758 -98.5397 270° West 402 463 18,000  Level Houston Center
Fri 09:45:22 PM 25.7767 -98.6636 270° West 400 460 18,000  Level Houston Center
Fri 09:46:23 PM 25.7775 -98.7728 271° West 402 463 18,000  Level Houston Center
Fri 09:47:25 PM 25.7775 -98.8969 270° West 403 464 18,000  Level Houston Center
Fri 09:48:26 PM 25.7767 -99.0219 270° West 403 464 18,000  Level Houston Center
Fri 09:49:27 PM 25.7778 -99.1458 271° West 403 464 18,000 -197 Level Houston Center
Fri 09:50:28 PM 25.7783 -99.2933 270° West 402 463 17,600 -1,122 Descending Houston Center
Fri 09:51:30 PM 25.8081 -99.4119 286° West 401 461 15,700 -1,854 Descending Houston Center
Fri 09:52:31 PM 25.8358 -99.5214 286° West 390 449 13,800 -1,525 Descending Houston Center
Fri 09:53:32 PM 25.8650 -99.6339 286° West 382 440 12,600 -1,475 Descending Houston Center
Fri 09:54:33 PM 25.8933 -99.7400 287° West 376 433 10,800 -1,475 Descending Houston Center
Fri 09:55:34 PM 25.9156 -99.8278 286° West 352 405 9,600 -1,366 Descending Houston Center
Fri 09:56:36 PM 25.9342 -99.9028 285° West 306 352 8,000 -1,610 Descending Houston Center
Fri 09:57:37 PM 25.9522 -99.9797 285° West 278 320 6,300 -1,104 Descending Houston Center
Fri 09:58:41 PM 25.9778 -100.0775 286° West 275 316 5,700 -563 Descending Houston Center

Login

Don't have an account? Register now (free) for customized features, flight alerts, and more!